createdAt,value
2023-05-18T00:02:23.450Z,20.10
2023-05-18T00:04:51.679Z,20.33
2023-05-18T00:07:19.745Z,21.13
2023-05-18T00:09:47.718Z,19.97
2023-05-18T00:12:16.585Z,20.17
2023-05-18T00:14:45.930Z,22.20
2023-05-18T00:17:14.773Z,21.67
2023-05-18T00:19:42.841Z,20.63
2023-05-18T00:22:11.284Z,22.33
2023-05-18T00:24:39.337Z,22.80
2023-05-18T00:27:08.134Z,22.90
2023-05-18T00:29:36.179Z,23.00
2023-05-18T00:32:06.229Z,22.37
2023-05-18T00:34:35.132Z,22.53
2023-05-18T00:37:04.593Z,22.63
2023-05-18T00:39:32.548Z,23.17
2023-05-18T00:42:00.512Z,22.30
2023-05-18T00:44:29.050Z,22.53
2023-05-18T00:46:56.970Z,23.00
2023-05-18T00:49:27.798Z,22.67
2023-05-18T00:51:56.249Z,21.87
2023-05-18T00:54:27.392Z,23.03
2023-05-18T00:56:55.568Z,21.70
2023-05-18T00:59:23.525Z,22.00
2023-05-18T01:01:53.782Z,23.50
2023-05-18T01:04:24.125Z,23.70
2023-05-18T01:06:56.733Z,23.83
2023-05-18T01:09:25.700Z,22.67
2023-05-18T01:12:02.802Z,23.97
2023-05-18T01:14:35.051Z,22.23
2023-05-18T01:17:12.830Z,22.20
2023-05-18T01:20:08.974Z,21.93
2023-05-18T01:22:56.702Z,24.33
2023-05-18T01:25:49.313Z,24.00
2023-05-18T01:28:22.167Z,21.53
2023-05-18T01:30:50.905Z,22.90
2023-05-18T01:33:19.031Z,22.07
2023-05-18T01:35:48.426Z,21.90
2023-05-18T01:38:20.696Z,21.50
2023-05-18T01:41:02.194Z,20.33
2023-05-18T01:43:34.938Z,20.70
2023-05-18T01:46:13.006Z,19.57
2023-05-18T01:48:47.310Z,20.03
2023-05-18T01:51:17.841Z,20.50
2023-05-18T01:54:01.745Z,21.20
2023-05-18T01:56:33.053Z,20.43
2023-05-18T01:59:04.364Z,20.23
2023-05-18T02:01:32.550Z,19.43
2023-05-18T02:04:00.648Z,18.60
2023-05-18T02:06:31.954Z,19.73
2023-05-18T02:08:59.963Z,20.03
2023-05-18T02:11:28.276Z,19.20
2023-05-18T02:13:56.339Z,18.63
2023-05-18T02:16:25.715Z,19.27
2023-05-18T02:18:54.473Z,17.97
2023-05-18T02:21:22.768Z,18.00
2023-05-18T02:23:50.925Z,18.40
2023-05-18T02:26:19.169Z,18.00
2023-05-18T02:28:53.546Z,17.80
2023-05-18T02:31:23.172Z,19.17
2023-05-18T02:33:52.610Z,18.13
2023-05-18T02:36:22.634Z,19.77
2023-05-18T02:38:51.070Z,19.60
2023-05-18T02:41:19.056Z,19.37
2023-05-18T02:43:47.095Z,18.60
2023-05-18T02:46:15.162Z,18.70
2023-05-18T02:48:45.657Z,18.17
2023-05-18T02:51:15.426Z,18.67
2023-05-18T02:53:44.221Z,20.00
2023-05-18T02:56:14.641Z,21.07
2023-05-18T02:58:57.533Z,21.30
2023-05-18T03:01:30.970Z,21.40
2023-05-18T03:03:59.013Z,20.20
2023-05-18T03:06:30.408Z,21.73
2023-05-18T03:08:59.058Z,20.93
2023-05-18T03:11:35.260Z,21.43
2023-05-18T03:14:03.392Z,21.43
2023-05-18T03:16:31.350Z,20.63
2023-05-18T03:19:02.182Z,22.27
2023-05-18T03:21:38.748Z,22.03
2023-05-18T03:24:08.259Z,22.27
2023-05-18T03:26:41.792Z,21.87
2023-05-18T03:29:11.321Z,22.90
2023-05-18T03:31:39.447Z,24.60
2023-05-18T03:34:07.505Z,23.63
2023-05-18T03:36:38.447Z,24.63
2023-05-18T03:39:08.459Z,24.80
2023-05-18T03:41:36.700Z,23.40
2023-05-18T03:44:04.778Z,24.30
2023-05-18T03:46:32.890Z,23.70
2023-05-18T03:49:01.071Z,24.10
2023-05-18T03:51:37.656Z,26.90
2023-05-18T03:54:07.873Z,24.30
2023-05-18T03:56:37.349Z,22.90
2023-05-18T03:59:06.568Z,26.27
2023-05-18T04:01:35.271Z,24.90
2023-05-18T04:04:03.437Z,22.30
2023-05-18T04:06:35.204Z,23.67
2023-05-18T04:09:04.718Z,21.80
2023-05-18T04:11:34.173Z,22.93
2023-05-18T04:14:03.177Z,22.80
2023-05-18T04:16:31.509Z,23.07
2023-05-18T04:19:01.736Z,20.60
2023-05-18T04:21:36.075Z,21.80
2023-05-18T04:24:07.026Z,21.00
2023-05-18T04:26:38.548Z,21.80
2023-05-18T04:29:07.646Z,20.93
2023-05-18T04:31:36.613Z,19.70
2023-05-18T04:34:04.851Z,20.60
2023-05-18T04:36:35.023Z,19.33
2023-05-18T04:39:07.699Z,20.17
2023-05-18T04:41:37.394Z,18.87
2023-05-18T04:44:05.637Z,19.37
2023-05-18T04:46:34.936Z,18.17
2023-05-18T04:49:04.300Z,18.50
2023-05-18T04:51:36.839Z,18.20
2023-05-18T04:54:06.303Z,18.10
2023-05-18T04:56:34.406Z,18.33
2023-05-18T04:59:04.264Z,18.10
2023-05-18T05:01:32.335Z,18.00
2023-05-18T05:04:00.487Z,18.30
2023-05-18T05:06:28.635Z,17.43
2023-05-18T05:08:56.548Z,19.40
2023-05-18T05:11:24.661Z,18.83
2023-05-18T05:13:52.772Z,18.50
2023-05-18T05:16:22.297Z,18.37
2023-05-18T05:18:50.940Z,18.27
2023-05-18T05:21:19.109Z,19.00
2023-05-18T05:23:47.209Z,18.80
2023-05-18T05:26:15.317Z,19.90
2023-05-18T05:28:43.456Z,19.30
2023-05-18T05:31:11.495Z,19.70
2023-05-18T05:33:41.074Z,18.23
2023-05-18T05:36:10.047Z,20.43
2023-05-18T05:38:38.895Z,19.70
2023-05-18T05:41:07.244Z,19.83
2023-05-18T05:43:35.683Z,19.67
2023-05-18T05:46:04.148Z,19.20
2023-05-18T05:48:32.300Z,19.37
2023-05-18T05:51:01.772Z,20.33
2023-05-18T05:53:30.959Z,20.00
2023-05-18T05:55:59.151Z,20.20
2023-05-18T05:58:27.462Z,18.67
2023-05-18T06:00:59.583Z,20.20
2023-05-18T06:03:29.386Z,20.37
2023-05-18T06:06:03.497Z,20.10
2023-05-18T06:08:31.556Z,19.63
2023-05-18T06:10:59.564Z,19.70
2023-05-18T06:13:27.627Z,19.20
2023-05-18T06:15:57.159Z,18.97
2023-05-18T06:18:26.045Z,19.83
2023-05-18T06:20:58.610Z,17.37
2023-05-18T06:23:29.169Z,20.23
2023-05-18T06:26:17.731Z,19.53
2023-05-18T06:28:54.280Z,20.30
2023-05-18T06:31:28.317Z,20.10
2023-05-18T06:34:08.766Z,20.80
2023-05-18T06:36:38.199Z,20.60
2023-05-18T06:39:07.606Z,20.03
2023-05-18T06:41:35.867Z,21.30
2023-05-18T06:44:04.338Z,20.50
2023-05-18T06:46:37.254Z,19.57
2023-05-18T06:49:22.193Z,18.83
2023-05-18T06:51:50.440Z,21.73
2023-05-18T06:54:19.880Z,21.23
2023-05-18T06:56:49.249Z,22.20
2023-05-18T06:59:18.058Z,22.70
2023-05-18T07:01:46.110Z,22.17
2023-05-18T07:04:17.825Z,24.13
2023-05-18T07:06:46.117Z,23.93
2023-05-18T07:09:14.162Z,26.53
2023-05-18T07:11:45.431Z,28.07
2023-05-18T07:14:13.429Z,26.43
2023-05-18T07:16:41.332Z,27.13
2023-05-18T07:19:09.409Z,26.77
2023-05-18T07:21:37.545Z,25.57
2023-05-18T07:24:05.893Z,26.27
2023-05-18T07:26:33.918Z,25.83
2023-05-18T07:29:03.370Z,24.80
2023-05-18T07:31:33.462Z,23.47
2023-05-18T07:34:01.460Z,25.10
2023-05-18T07:36:29.396Z,23.40
2023-05-18T07:38:59.474Z,22.90
2023-05-18T07:41:28.086Z,22.23
2023-05-18T07:43:56.092Z,23.87
2023-05-18T07:46:25.764Z,22.80
2023-05-18T07:48:53.837Z,23.20
2023-05-18T07:51:22.081Z,22.57
2023-05-18T07:53:50.052Z,22.83
2023-05-18T07:56:18.130Z,20.13
2023-05-18T07:58:46.144Z,20.27
2023-05-18T08:01:14.124Z,21.40
2023-05-18T08:03:43.647Z,24.10
2023-05-18T08:06:14.155Z,22.17
2023-05-18T08:08:42.077Z,23.87
2023-05-18T08:11:10.088Z,23.60
2023-05-18T08:13:38.050Z,24.60
2023-05-18T08:16:11.810Z,21.80
2023-05-18T08:18:40.999Z,23.00
2023-05-18T08:21:10.519Z,26.57
2023-05-18T08:23:38.628Z,24.90
2023-05-18T08:26:08.163Z,24.43
2023-05-18T08:28:36.272Z,24.40
2023-05-18T08:31:04.315Z,23.00
2023-05-18T08:33:33.228Z,21.27
2023-05-18T08:36:01.148Z,20.73
2023-05-18T08:38:31.899Z,17.13
2023-05-18T08:41:07.569Z,18.43
2023-05-18T08:43:39.600Z,17.37
2023-05-18T08:46:14.606Z,16.20
2023-05-18T08:48:46.634Z,18.23
2023-05-18T08:51:20.472Z,17.13
2023-05-18T08:53:53.918Z,17.97
2023-05-18T08:56:24.714Z,19.37
2023-05-18T08:58:56.511Z,19.90
2023-05-18T09:01:28.830Z,19.90
2023-05-18T09:03:58.215Z,19.23
2023-05-18T09:06:28.343Z,18.93
2023-05-18T09:08:58.676Z,19.97
2023-05-18T09:11:28.440Z,19.37
2023-05-18T09:13:56.679Z,16.83
2023-05-18T09:16:24.906Z,18.17
2023-05-18T09:18:53.210Z,17.10
2023-05-18T09:21:21.309Z,17.63
2023-05-18T09:23:49.455Z,18.23
2023-05-18T09:26:21.022Z,19.00
2023-05-18T09:28:53.609Z,20.43
2023-05-18T09:31:24.371Z,20.70
2023-05-18T09:33:53.178Z,19.03
2023-05-18T09:36:28.354Z,19.40
2023-05-18T09:38:56.449Z,19.93
2023-05-18T09:41:27.980Z,20.43
2023-05-18T09:43:56.012Z,21.07
2023-05-18T09:46:24.056Z,23.27
2023-05-18T09:48:53.831Z,22.33
2023-05-18T09:51:25.232Z,22.63
2023-05-18T09:53:56.358Z,22.90
2023-05-18T09:56:26.757Z,21.83
2023-05-18T09:58:55.136Z,20.40
2023-05-18T10:01:23.174Z,21.00
2023-05-18T10:03:53.181Z,21.23
2023-05-18T10:06:22.504Z,20.60
2023-05-18T10:08:50.581Z,18.50
2023-05-18T10:11:19.828Z,22.13
2023-05-18T10:13:54.533Z,21.17
2023-05-18T10:16:25.140Z,20.00
2023-05-18T10:18:55.744Z,21.83
2023-05-18T10:21:28.523Z,21.27
2023-05-18T10:23:57.194Z,20.73
2023-05-18T10:26:29.732Z,22.20
2023-05-18T10:29:00.907Z,22.63
2023-05-18T10:31:31.289Z,20.73
2023-05-18T10:34:01.521Z,21.37
2023-05-18T10:36:32.704Z,22.17
2023-05-18T10:39:01.870Z,21.63
2023-05-18T10:41:31.614Z,21.93
2023-05-18T10:44:04.020Z,22.00
2023-05-18T10:46:32.961Z,22.27
2023-05-18T10:49:02.329Z,21.07
2023-05-18T10:51:31.889Z,18.70
2023-05-18T10:54:11.667Z,20.67
2023-05-18T10:56:41.175Z,20.47
2023-05-18T10:59:11.906Z,20.27
2023-05-18T11:01:42.011Z,19.87
2023-05-18T11:04:10.113Z,20.50
2023-05-18T11:06:38.150Z,22.20
2023-05-18T11:09:06.405Z,22.67
2023-05-18T11:11:52.182Z,22.63
2023-05-18T11:14:28.337Z,21.77
2023-05-18T11:17:17.687Z,20.47
2023-05-18T11:20:13.084Z,22.33
2023-05-18T11:22:51.290Z,22.57
2023-05-18T11:25:41.708Z,22.90
2023-05-18T11:28:11.921Z,25.13
2023-05-18T11:30:49.960Z,25.45
2023-05-18T11:33:23.257Z,21.87
2023-05-18T11:36:07.636Z,22.87
2023-05-18T11:38:56.142Z,26.83
2023-05-18T11:41:32.714Z,25.30
2023-05-18T11:44:18.086Z,27.50
2023-05-18T11:46:55.277Z,26.90
2023-05-18T11:49:25.758Z,25.40
2023-05-18T11:52:17.033Z,25.53
2023-05-18T11:54:47.887Z,24.60
2023-05-18T11:57:18.506Z,26.83
2023-05-18T11:59:48.327Z,26.20
2023-05-18T12:02:25.034Z,26.57
2023-05-18T12:04:54.818Z,26.43
2023-05-18T12:07:23.514Z,26.40
2023-05-18T12:09:51.884Z,25.13
2023-05-18T12:12:20.890Z,25.27
2023-05-18T12:14:55.449Z,26.20
2023-05-18T12:17:25.391Z,26.47
2023-05-18T12:19:53.507Z,26.33
2023-05-18T12:22:21.936Z,25.80
2023-05-18T12:24:53.506Z,25.40
2023-05-18T12:27:23.049Z,26.97
2023-05-18T12:29:51.220Z,25.47
2023-05-18T12:32:20.467Z,24.07
2023-05-18T12:34:52.539Z,23.17
2023-05-18T12:37:23.883Z,25.10
2023-05-18T12:39:55.237Z,22.17
2023-05-18T12:42:23.403Z,20.50
2023-05-18T12:44:51.667Z,22.23
2023-05-18T12:47:19.613Z,22.83
2023-05-18T12:49:51.108Z,20.73
2023-05-18T12:52:22.150Z,21.80
2023-05-18T12:54:55.573Z,20.03
2023-05-18T12:57:26.896Z,20.87
2023-05-18T12:59:55.418Z,21.83
2023-05-18T13:02:32.889Z,20.87
2023-05-18T13:05:10.720Z,20.97
2023-05-18T13:07:41.257Z,20.70
2023-05-18T13:10:11.670Z,21.27
2023-05-18T13:12:44.423Z,20.57
2023-05-18T13:15:16.538Z,20.67
2023-05-18T13:18:06.768Z,20.37
2023-05-18T13:20:39.771Z,20.80
2023-05-18T13:23:10.029Z,19.97
2023-05-18T13:25:38.312Z,20.70
2023-05-18T13:28:07.038Z,21.10
2023-05-18T13:30:35.070Z,22.83
2023-05-18T13:33:03.253Z,21.83
2023-05-18T13:35:32.429Z,20.77
2023-05-18T13:38:02.070Z,21.47
2023-05-18T13:40:30.853Z,21.57
2023-05-18T13:42:58.911Z,20.90
2023-05-18T13:45:27.233Z,20.37
2023-05-18T13:47:55.294Z,19.50
2023-05-18T13:50:23.746Z,20.73
2023-05-18T13:52:51.689Z,20.37
2023-05-18T13:55:21.095Z,20.73
2023-05-18T13:57:49.002Z,19.90
2023-05-18T14:00:17.958Z,19.90
2023-05-18T14:02:46.654Z,21.03
2023-05-18T14:05:16.434Z,21.23
2023-05-18T14:07:44.802Z,19.60
2023-05-18T14:10:14.294Z,18.60
2023-05-18T14:12:43.636Z,21.03
2023-05-18T14:15:14.758Z,19.93
2023-05-18T14:17:43.130Z,18.93
2023-05-18T14:20:12.004Z,19.83
2023-05-18T14:22:40.318Z,19.97
2023-05-18T14:25:09.005Z,20.60
2023-05-18T14:27:37.048Z,20.87
2023-05-18T14:30:07.843Z,19.07
2023-05-18T14:32:35.942Z,19.20
2023-05-18T14:35:03.912Z,20.00
2023-05-18T14:37:32.975Z,19.50
2023-05-18T14:40:01.304Z,20.67
2023-05-18T14:42:29.375Z,20.53
2023-05-18T14:44:57.331Z,21.03
2023-05-18T14:47:26.724Z,19.83
2023-05-18T14:49:54.723Z,22.43
2023-05-18T14:52:22.736Z,21.70
2023-05-18T14:54:50.758Z,20.37
2023-05-18T14:57:18.760Z,22.07
2023-05-18T14:59:46.747Z,20.03
2023-05-18T15:02:14.870Z,21.67
2023-05-18T15:04:44.257Z,19.80
2023-05-18T15:07:12.421Z,18.63
2023-05-18T15:09:40.512Z,19.20
2023-05-18T15:12:08.749Z,21.17
2023-05-18T15:14:37.891Z,20.63
2023-05-18T15:17:07.249Z,20.33
2023-05-18T15:19:35.459Z,20.70
2023-05-18T15:22:04.998Z,19.43
2023-05-18T15:24:32.993Z,21.73
2023-05-18T15:27:03.535Z,19.50
2023-05-18T15:29:31.654Z,19.37
2023-05-18T15:31:59.564Z,19.43
2023-05-18T15:34:27.568Z,19.97
2023-05-18T15:36:55.520Z,20.07
2023-05-18T15:39:24.868Z,19.10
2023-05-18T15:41:52.946Z,19.27
2023-05-18T15:44:20.966Z,19.77
2023-05-18T15:46:49.013Z,19.57
2023-05-18T15:49:17.090Z,19.37
2023-05-18T15:51:45.088Z,19.00
2023-05-18T15:54:13.026Z,19.67
2023-05-18T15:56:42.378Z,20.50
2023-05-18T15:59:10.476Z,19.43
2023-05-18T16:01:38.530Z,18.97
2023-05-18T16:04:06.618Z,19.90
2023-05-18T16:06:36.835Z,21.30
2023-05-18T16:09:04.979Z,19.13
2023-05-18T16:11:35.618Z,20.10
2023-05-18T16:14:05.382Z,21.30
2023-05-18T16:16:33.449Z,20.57
2023-05-18T16:19:02.232Z,20.90
2023-05-18T16:21:31.700Z,18.77
2023-05-18T16:24:00.470Z,18.30
2023-05-18T16:26:28.449Z,20.03
2023-05-18T16:28:56.549Z,18.63
2023-05-18T16:31:26.010Z,19.83
2023-05-18T16:33:54.320Z,19.07
2023-05-18T16:36:24.160Z,20.03
2023-05-18T16:38:52.278Z,19.67
2023-05-18T16:41:21.948Z,20.17
2023-05-18T16:43:50.026Z,19.63
2023-05-18T16:46:19.825Z,21.10
2023-05-18T16:48:49.276Z,21.50
2023-05-18T16:51:17.208Z,21.40
2023-05-18T16:53:45.190Z,20.40
2023-05-18T16:56:13.396Z,21.10
2023-05-18T16:58:41.428Z,19.93
2023-05-18T17:01:16.099Z,20.97
2023-05-18T17:03:56.588Z,20.50
2023-05-18T17:06:24.936Z,19.57
2023-05-18T17:08:57.654Z,19.80
2023-05-18T17:11:26.674Z,19.47
2023-05-18T17:13:54.792Z,19.83
2023-05-18T17:16:23.352Z,19.50
2023-05-18T17:18:51.401Z,19.37
2023-05-18T17:21:20.914Z,21.43
2023-05-18T17:23:48.865Z,19.70
2023-05-18T17:26:17.225Z,18.73
2023-05-18T17:28:45.167Z,18.47
2023-05-18T17:31:14.544Z,19.50
2023-05-18T17:33:46.986Z,18.13
2023-05-18T17:36:18.098Z,19.20
2023-05-18T17:38:47.776Z,19.63
2023-05-18T17:41:16.214Z,21.00
2023-05-18T17:43:44.218Z,20.57
2023-05-18T17:46:12.190Z,20.30
2023-05-18T17:48:40.221Z,21.33
2023-05-18T17:51:08.289Z,21.43
2023-05-18T17:53:41.728Z,21.87
2023-05-18T17:56:12.132Z,23.27
2023-05-18T17:58:40.145Z,22.03
2023-05-18T18:01:08.705Z,22.97
2023-05-18T18:03:37.369Z,22.13
2023-05-18T18:06:05.906Z,22.10
2023-05-18T18:08:34.077Z,23.47
2023-05-18T18:11:02.090Z,24.03
2023-05-18T18:13:31.464Z,24.40
2023-05-18T18:15:59.463Z,22.97
2023-05-18T18:18:27.704Z,25.07
2023-05-18T18:20:55.670Z,24.67
2023-05-18T18:23:23.635Z,22.03
2023-05-18T18:25:51.904Z,20.13
2023-05-18T18:28:19.798Z,20.50
2023-05-18T18:30:49.585Z,19.83
2023-05-18T18:33:17.809Z,19.77
2023-05-18T18:35:46.146Z,19.13
2023-05-18T18:38:14.771Z,18.87
2023-05-18T18:40:42.900Z,18.50
2023-05-18T18:43:11.144Z,18.90
2023-05-18T18:45:40.159Z,17.50
2023-05-18T18:48:10.457Z,16.43
2023-05-18T18:50:38.448Z,18.70
2023-05-18T18:53:06.405Z,17.13
2023-05-18T18:55:34.643Z,18.23
2023-05-18T18:58:02.840Z,18.23
2023-05-18T19:00:31.148Z,17.63
2023-05-18T19:02:59.198Z,17.77
2023-05-18T19:05:30.894Z,17.47
2023-05-18T19:07:59.076Z,18.60
2023-05-18T19:10:27.041Z,17.67
2023-05-18T19:12:55.078Z,16.43
2023-05-18T19:15:23.043Z,21.97
2023-05-18T19:17:53.677Z,17.23
2023-05-18T19:20:23.031Z,17.53
2023-05-18T19:22:53.448Z,18.50
2023-05-18T19:25:22.075Z,16.77
2023-05-18T19:27:50.034Z,18.53
2023-05-18T19:30:21.098Z,19.40
2023-05-18T19:32:50.154Z,20.33
2023-05-18T19:35:19.896Z,19.03
2023-05-18T19:37:48.523Z,19.83
2023-05-18T19:40:18.444Z,22.13
2023-05-18T19:42:46.503Z,23.73
2023-05-18T19:45:14.502Z,20.80
2023-05-18T19:47:42.540Z,20.57
2023-05-18T19:50:10.723Z,19.73
2023-05-18T19:52:38.755Z,23.50
2023-05-18T19:55:07.639Z,22.27
2023-05-18T19:57:37.172Z,25.57
2023-05-18T20:00:07.025Z,33.23
2023-05-18T20:02:40.231Z,30.27
2023-05-18T20:05:12.628Z,25.17
2023-05-18T20:07:41.000Z,24.10
2023-05-18T20:10:08.958Z,21.03
2023-05-18T20:12:38.360Z,20.37
2023-05-18T20:15:07.651Z,21.53
2023-05-18T20:17:35.840Z,20.30
2023-05-18T20:20:06.136Z,20.03
2023-05-18T20:22:34.285Z,20.53
2023-05-18T20:25:05.372Z,22.83
2023-05-18T20:27:33.538Z,23.23
2023-05-18T20:30:03.142Z,23.77
2023-05-18T20:32:32.654Z,20.70
2023-05-18T20:35:00.799Z,22.03
2023-05-18T20:37:28.825Z,22.93
2023-05-18T20:39:57.478Z,25.00
2023-05-18T20:42:31.861Z,25.80
2023-05-18T20:44:59.893Z,25.23
2023-05-18T20:47:31.687Z,25.03
2023-05-18T20:49:59.878Z,26.27
2023-05-18T20:52:28.961Z,25.93
2023-05-18T20:54:57.572Z,25.60
2023-05-18T20:57:27.740Z,25.47
2023-05-18T20:59:55.887Z,25.80
2023-05-18T21:02:23.883Z,26.30
2023-05-18T21:04:57.636Z,23.13
2023-05-18T21:07:25.751Z,25.77
2023-05-18T21:09:53.722Z,24.10
2023-05-18T21:12:21.759Z,23.00
2023-05-18T21:14:49.650Z,22.50
2023-05-18T21:17:17.655Z,21.53
2023-05-18T21:19:45.568Z,21.33
2023-05-18T21:22:15.869Z,20.30
2023-05-18T21:24:43.779Z,20.83
2023-05-18T21:27:12.076Z,20.13
2023-05-18T21:29:40.087Z,21.80
2023-05-18T21:32:08.687Z,22.47
2023-05-18T21:34:36.878Z,21.50
2023-05-18T21:37:05.096Z,23.50
2023-05-18T21:39:34.470Z,24.00
2023-05-18T21:42:03.384Z,24.73
2023-05-18T21:44:31.316Z,23.47
2023-05-18T21:46:59.308Z,23.83
2023-05-18T21:49:27.256Z,24.20
2023-05-18T21:51:56.121Z,25.80
2023-05-18T21:54:24.196Z,25.77
2023-05-18T21:56:53.635Z,26.47
2023-05-18T21:59:21.679Z,26.90
2023-05-18T22:01:49.622Z,25.30
2023-05-18T22:04:18.294Z,25.40
2023-05-18T22:06:46.308Z,25.03
2023-05-18T22:09:14.321Z,24.63
2023-05-18T22:11:42.315Z,23.53
2023-05-18T22:14:11.745Z,23.53
2023-05-18T22:16:39.823Z,22.70
2023-05-18T22:19:07.926Z,26.23
2023-05-18T22:21:36.097Z,24.33
2023-05-18T22:24:04.105Z,24.47
2023-05-18T22:26:32.217Z,21.13
2023-05-18T22:29:00.228Z,21.00
2023-05-18T22:31:29.688Z,20.47
2023-05-18T22:33:57.710Z,19.93
2023-05-18T22:36:27.292Z,18.03
2023-05-18T22:38:56.340Z,18.30
2023-05-18T22:41:24.421Z,18.63
2023-05-18T22:43:52.418Z,20.00
2023-05-18T22:46:20.678Z,18.40
2023-05-18T22:48:50.187Z,20.70
2023-05-18T22:51:18.626Z,20.23
2023-05-18T22:53:46.725Z,21.00
2023-05-18T22:56:18.334Z,21.43
2023-05-18T22:58:46.351Z,20.80
2023-05-18T23:01:14.468Z,21.63
2023-05-18T23:03:42.579Z,21.17
2023-05-18T23:06:11.932Z,23.10
2023-05-18T23:08:39.950Z,23.77
2023-05-18T23:11:08.028Z,24.23
2023-05-18T23:13:37.578Z,24.80
2023-05-18T23:16:10.207Z,25.70
2023-05-18T23:18:38.704Z,25.57
2023-05-18T23:21:09.046Z,25.37
2023-05-18T23:23:38.966Z,25.70
2023-05-18T23:26:07.010Z,24.77
2023-05-18T23:28:35.032Z,24.60
2023-05-18T23:31:03.037Z,24.83
2023-05-18T23:33:31.619Z,24.97
2023-05-18T23:36:03.948Z,24.47
2023-05-18T23:38:37.590Z,25.43
2023-05-18T23:41:09.437Z,26.53
2023-05-18T23:43:38.103Z,25.77
2023-05-18T23:46:07.425Z,24.80
2023-05-18T23:48:36.314Z,27.10
2023-05-18T23:51:05.045Z,26.83
2023-05-18T23:53:34.041Z,26.33
2023-05-18T23:56:03.400Z,28.17
2023-05-18T23:58:33.529Z,27.63
